| time (UTC) | temp C | wind direction | speed KPH | gust KPH | rain 1hr cm | rain 24hr cm | rain mn cm | humidity % | barometer mb |
| 20260506211348 | 23 | 171 | 11.3 | 29.0 | 0.00 | 0.00 | 0.00 | 56 | |
| 20260506210849 | 23 | 190 | 12.9 | 24.1 | 0.00 | 0.00 | 0.00 | 56 | |
| 20260506210349 | 22 | 194 | 12.9 | 24.1 | 0.00 | 0.00 | 0.00 | 56 | |
| 20260506205852 | 23 | 226 | 11.3 | 22.5 | 0.00 | 0.00 | 0.00 | 56 | |
| 20260506205845 | 23 | 196 | 11.3 | 24.1 | 0.00 | 0.00 | 0.00 | 55 | |
| 20260506204845 | 23 | 238 | 12.9 | 22.5 | 0.00 | 0.00 | 0.00 | 56 | |
| 20260506204342 | 23 | 188 | 11.3 | 24.1 | 0.00 | 0.00 | 0.00 | 57 | |
| 20260506203844 | 22 | 172 | 9.7 | 22.5 | 0.00 | 0.00 | 0.00 | 59 | |
| 20260506203340 | 22 | 217 | 9.7 | 22.5 | 0.00 | 0.00 | 0.00 | 58 | |
| 20260506202842 | 22 | 219 | 9.7 | 22.5 | 0.00 | 0.00 | 0.00 | 57 | |
| 20260506202342 | 22 | 165 | 9.7 | 25.7 | 0.00 | 0.00 | 0.00 | 57 | |
| 20260506201839 | 22 | 225 | 11.3 | 27.4 | 0.00 | 0.00 | 0.00 | 55 | |
| 20260506201338 | 23 | 182 | 11.3 | 27.4 | 0.00 | 0.00 | 0.00 | 56 | |
| 20260506201005 | 22 | 290 | 4.8 | 16.1 | 0.00 | 0.00 | 0.00 | 55 | |
| 20260506200847 | 22 | 271 | 3.2 | 11.3 | 0.00 | 0.00 | 0.00 | 54 | |
| 20260506200840 | 23 | 261 | 6.4 | 20.9 | 0.00 | 0.00 | 0.00 | 56 | |
| 20260506195337 | 22 | 309 | 6.4 | 16.1 | 0.00 | 0.00 | 0.00 | 54 | |
| 20260506194836 | 22 | 5 | 4.8 | 14.5 | 0.00 | 0.00 | 0.00 | 55 | |
| 20260506194345 | 21 | 92 | 3.2 | 16.1 | 0.00 | 0.00 | 0.00 | 55 | |
| 20260506194338 | 22 | 211 | 3.2 | 16.1 | 0.00 | 0.00 | 0.00 | 56 | |
| 20260506193336 | 22 | 275 | 3.2 | 8.0 | 0.00 | 0.00 | 0.00 | 53 | |
| 20260506192839 | 23 | 79 | 4.8 | 14.5 | 0.00 | 0.00 | 0.00 | 55 | |
| 20260506192835 | 22 | 134 | 6.4 | 14.5 | 0.00 | 0.00 | 0.00 | 55 | |
| 20260506191835 | 22 | 184 | 4.8 | 11.3 | 0.00 | 0.00 | 0.00 | 56 | |
| 20260506191333 | 22 | 184 | 6.4 | 16.1 | 0.00 | 0.00 | 0.00 | 54 | |
| 20260506190833 | 22 | 132 | 8.0 | 16.1 | 0.00 | 0.00 | 0.00 | 54 | |
| 20260506190334 | 22 | 84 | 8.0 | 17.7 | 0.00 | 0.00 | 0.00 | 57 | |
| 20260506185834 | 21 | 115 | 8.0 | 17.7 | 0.00 | 0.00 | 0.00 | 55 | |
| 20260506185332 | 21 | 116 | 4.8 | 14.5 | 0.00 | 0.00 | 0.00 | 56 | |
| 20260506184832 | 21 | 115 | 1.6 | 12.9 | 0.00 | 0.00 | 0.00 | 58 | |
| 20260506184334 | 20 | 304 | 3.2 | 8.0 | 0.00 | 0.00 | 0.00 | 59 | |
| 20260506183833 | 20 | 344 | 4.8 | 12.9 | 0.00 | 0.00 | 0.00 | 59 | |
| 20260506183332 | 20 | 285 | 6.4 | 12.9 | 0.00 | 0.00 | 0.00 | 62 | |
| 20260506182833 | 20 | 19 | 6.4 | 12.9 | 0.00 | 0.00 | 0.00 | 61 | |
| 20260506182332 | 20 | 24 | 4.8 | 12.9 | 0.00 | 0.00 | 0.00 | 62 | |
| 20260506181832 | 20 | 123 | 4.8 | 9.7 | 0.00 | 0.00 | 0.00 | 63 | |
| 20260506181342 | 19 | 42 | 3.2 | 9.7 | 0.00 | 0.00 | 0.00 | 65 | |
| 20260506181333 | 19 | 0 | 1.6 | 6.4 | 0.00 | 0.00 | 0.00 | 64 | |
| 20260506180330 | 18 | 259 | 3.2 | 9.7 | 0.00 | 0.00 | 0.00 | 64 | |
| 20260506175829 | 19 | 323 | 3.2 | 9.7 | 0.00 | 0.00 | 0.00 | 65 | |
| 20260506175328 | 19 | 185 | 3.2 | 14.5 | 0.00 | 0.00 | 0.00 | 66 | |
| 20260506174830 | 19 | 202 | 3.2 | 14.5 | 0.00 | 0.00 | 0.00 | 66 | |
| 20260506174328 | 18 | 159 | 3.2 | 8.0 | 0.00 | 0.00 | 0.00 | 66 | |
| 20260506173829 | 18 | 130 | 3.2 | 9.7 | 0.00 | 0.00 | 0.00 | 66 | |
| 20260506173328 | 18 | 69 | 3.2 | 9.7 | 0.00 | 0.00 | 0.00 | 68 | |
| 20260506172828 | 18 | 227 | 3.2 | 9.7 | 0.00 | 0.00 | 0.00 | 69 | |
| 20260506172330 | 18 | 142 | 1.6 | 6.4 | 0.00 | 0.00 | 0.00 | 69 | |
| 20260506171828 | 17 | 92 | 1.6 | 6.4 | 0.00 | 0.00 | 0.00 | 70 | |
| 20260506171328 | 18 | 106 | 1.6 | 9.7 | 0.00 | 0.00 | 0.00 | 70 | |
| 20260506170828 | 17 | 180 | 3.2 | 9.7 | 0.00 | 0.00 | 0.00 | 71 | |
| 20260506170330 | 17 | 271 | 1.6 | 6.4 | 0.00 | 0.00 | 0.00 | 70 | |
| 20260506165829 | 17 | 121 | 0.0 | 4.8 | 0.00 | 0.00 | 0.00 | 71 | |
| 20260506165326 | 17 | 61 | 1.6 | 4.8 | 0.00 | 0.00 | 0.00 | 72 | |
| 20260506164828 | 16 | 94 | 1.6 | 9.7 | 0.00 | 0.00 | 0.00 | 73 | |
| 20260506164326 | 16 | 46 | 1.6 | 9.7 | 0.00 | 0.00 | 0.00 | 72 | |
| 20260506163841 | 16 | 174 | 1.6 | 9.7 | 0.00 | 0.03 | 0.00 | 75 | |
| 20260506163826 | 16 | 162 | 1.6 | 9.7 | 0.00 | 0.03 | 0.00 | 73 | |
| 20260506163326 | 16 | 153 | 3.2 | 9.7 | 0.00 | 0.03 | 0.00 | 74 | |
| 20260506162328 | 16 | 108 | 0.0 | 3.2 | 0.00 | 0.03 | 0.00 | 76 | |
| 20260506161826 | 15 | 46 | 1.6 | 6.4 | 0.00 | 0.03 | 0.00 | 76 | |
| 20260506161327 | 15 | 90 | 3.2 | 6.4 | 0.00 | 0.03 | 0.00 | 77 | |
| 20260506160826 | 15 | 98 | 1.6 | 6.4 | 0.00 | 0.03 | 0.00 | 79 | |
| 20260506160324 | 15 | 174 | 1.6 | 4.8 | 0.00 | 0.03 | 0.00 | 79 | |
| 20260506155824 | 14 | 327 | 1.6 | 4.8 | 0.00 | 0.03 | 0.00 | 80 | |
| 20260506155331 | 13 | 225 | 0.0 | 4.8 | 0.00 | 0.03 | 0.00 | 80 | |
| 20260506155324 | 14 | 317 | 0.0 | 4.8 | 0.00 | 0.03 | 0.00 | 80 | |
| 20260506154325 | 14 | 225 | 3.2 | 8.0 | 0.00 | 0.03 | 0.00 | 80 | |
| 20260506153824 | 13 | 225 | 3.2 | 8.0 | 0.00 | 0.03 | 0.00 | 81 | |
| 20260506153325 | 13 | 220 | 1.6 | 6.4 | 0.00 | 0.03 | 0.00 | 81 | |
| 20260506152826 | 13 | 251 | 0.0 | 4.8 | 0.00 | 0.03 | 0.00 | 82 | |
| 20260506152324 | 13 | 173 | 0.0 | 1.6 | 0.00 | 0.03 | 0.00 | 83 | |
| 20260506151824 | 13 | 180 | 0.0 | 4.8 | 0.00 | 0.03 | 0.00 | 84 | |
| 20260506151323 | 13 | 182 | 1.6 | 4.8 | 0.00 | 0.03 | 0.00 | 85 | |
| 20260506150822 | 13 | 224 | 1.6 | 6.4 | 0.00 | 0.03 | 0.00 | 85 | |
| 20260506150322 | 13 | 225 | 0.0 | 6.4 | 0.00 | 0.03 | 0.00 | 85 | |
| 20260506145822 | 13 | 200 | 0.0 | 3.2 | 0.00 | 0.03 | 0.00 | 85 | |
| 20260506145323 | 13 | 187 | 0.0 | 4.8 | 0.00 | 0.03 | 0.00 | 85 | |
| 20260506144824 | 12 | 187 | 1.6 | 4.8 | 0.00 | 0.03 | 0.00 | 85 | |
| 20260506144323 | 12 | 187 | 1.6 | 4.8 | 0.00 | 0.03 | 0.00 | 86 | |
| 20260506143823 | 12 | 188 | 1.6 | 4.8 | 0.00 | 0.03 | 0.00 | 86 | |
| 20260506143323 | 12 | 229 | 1.6 | 6.4 | 0.00 | 0.03 | 0.00 | 86 | |
| 20260506142821 | 12 | 211 | 1.6 | 6.4 | 0.00 | 0.03 | 0.00 | 86 | |
| 20260506142321 | 12 | 259 | 0.0 | 3.2 | 0.00 | 0.03 | 0.00 | 86 | |
| 20260506141821 | 12 | 225 | 1.6 | 8.0 | 0.00 | 0.03 | 0.00 | 86 | |
| 20260506141322 | 12 | 214 | 1.6 | 8.0 | 0.00 | 0.03 | 0.00 | 86 | |
| 20260506140820 | 12 | 171 | 0.0 | 1.6 | 0.00 | 0.03 | 0.00 | 86 | |
| 20260506140321 | 12 | 164 | 0.0 | 3.2 | 0.00 | 0.03 | 0.00 | 86 | |
| 20260506135820 | 12 | 164 | 0.0 | 3.2 | 0.00 | 0.03 | 0.00 | 86 | |
| 20260506135321 | 12 | 194 | 0.0 | 1.6 | 0.00 | 0.03 | 0.00 | 86 | |
| 20260506134820 | 12 | 321 | 0.0 | 0.0 | 0.00 | 0.03 | 0.00 | 86 | |
| 20260506134320 | 12 | 321 | 0.0 | 0.0 | 0.00 | 0.03 | 0.00 | 86 | |
| 20260506133821 | 12 | 321 | 0.0 | 0.0 | 0.00 | 0.03 | 0.00 | 86 | |
| 20260506133318 | 12 | 321 | 0.0 | 0.0 | 0.00 | 0.03 | 0.00 | 85 | |
| 20260506132818 | 12 | 321 | 0.0 | 0.0 | 0.00 | 0.03 | 0.00 | 85 | |
| 20260506132327 | 12 | 321 | 0.0 | 0.0 | 0.00 | 0.03 | 0.00 | 85 | |
| 20260506132319 | 12 | 321 | 0.0 | 0.0 | 0.00 | 0.03 | 0.00 | 85 | |
| 20260506131818 | 12 | 321 | 0.0 | 0.0 | 0.00 | 0.03 | 0.00 | 85 | |
| 20260506130827 | 12 | 321 | 0.0 | 0.0 | 0.00 | 0.03 | 0.00 | 85 | |
| 20260506130819 | 12 | 321 | 0.0 | 0.0 | 0.00 | 0.03 | 0.00 | 85 | |
| 20260506125827 | 12 | 321 | 0.0 | 0.0 | 0.00 | 0.03 | 0.00 | 85 | |
| 20260506125819 | 12 | 321 | 0.0 | 0.0 | 0.00 | 0.03 | 0.00 | 85 | |
| 20260506124825 | 12 | 321 | 0.0 | 0.0 | 0.00 | 0.03 | 0.00 | 85 | |
| 20260506124817 | 12 | 321 | 0.0 | 0.0 | 0.00 | 0.03 | 0.00 | 85 | |
| 20260506123816 | 12 | 321 | 0.0 | 0.0 | 0.00 | 0.03 | 0.00 | 85 | |
| 20260506123318 | 12 | 321 | 0.0 | 0.0 | 0.00 | 0.03 | 0.00 | 85 | |
| 20260506122816 | 12 | 321 | 0.0 | 0.0 | 0.00 | 0.03 | 0.00 | 85 | |
| 20260506122325 | 12 | 321 | 0.0 | 0.0 | 0.00 | 0.03 | 0.00 | 85 | |
| 20260506122316 | 12 | 321 | 0.0 | 0.0 | 0.00 | 0.03 | 0.00 | 85 | |
| 20260506121316 | 11 | 321 | 0.0 | 0.0 | 0.00 | 0.03 | 0.00 | 85 | |
| 20260506120815 | 11 | 321 | 0.0 | 0.0 | 0.00 | 0.03 | 0.00 | 85 | |
| 20260506120315 | 11 | 321 | 0.0 | 0.0 | 0.00 | 0.03 | 0.00 | 85 | |
| 20260506115816 | 11 | 321 | 0.0 | 0.0 | 0.00 | 0.03 | 0.00 | 85 | |
| 20260506115312 | 11 | 321 | 0.0 | 0.0 | 0.00 | 0.03 | 0.00 | 85 | |
| 20260506114811 | 11 | 321 | 0.0 | 0.0 | 0.00 | 0.03 | 0.00 | 85 | |
| 20260506114313 | 11 | 321 | 0.0 | 0.0 | 0.00 | 0.03 | 0.00 | 84 | |
| 20260506113811 | 11 | 321 | 0.0 | 0.0 | 0.00 | 0.03 | 0.00 | 84 | |
| 20260506113311 | 11 | 321 | 0.0 | 0.0 | 0.00 | 0.03 | 0.00 | 85 | |
| 20260506112811 | 11 | 321 | 0.0 | 0.0 | 0.00 | 0.03 | 0.00 | 84 | |
| 20260506112310 | 11 | 321 | 0.0 | 0.0 | 0.00 | 0.03 | 0.00 | 84 | |
| 20260506111816 | 11 | 321 | 0.0 | 0.0 | 0.00 | 0.03 | 0.00 | 84 | |
| 20260506111809 | 11 | 321 | 0.0 | 0.0 | 0.00 | 0.03 | 0.00 | 84 | |
| 20260506110806 | 11 | 321 | 0.0 | 0.0 | 0.00 | 0.03 | 0.00 | 84 | |
| 20260506110307 | 11 | 321 | 0.0 | 0.0 | 0.00 | 0.03 | 0.00 | 84 | |
| 20260506105805 | 11 | 321 | 0.0 | 0.0 | 0.00 | 0.03 | 0.00 | 84 | |
| 20260506105305 | 11 | 321 | 0.0 | 0.0 | 0.00 | 0.05 | 0.00 | 84 | |
| 20260506104804 | 11 | 321 | 0.0 | 0.0 | 0.00 | 0.05 | 0.00 | 84 | |
| 20260506104302 | 11 | 321 | 0.0 | 0.0 | 0.00 | 0.05 | 0.00 | 83 | |
| 20260506103803 | 11 | 275 | 0.0 | 0.0 | 0.00 | 0.05 | 0.00 | 83 | |
| 20260506103302 | 11 | 275 | 0.0 | 0.0 | 0.00 | 0.05 | 0.00 | 83 | |
| 20260506102812 | 11 | 275 | 0.0 | 0.0 | 0.00 | 0.05 | 0.00 | 83 | |
| 20260506102804 | 11 | 275 | 0.0 | 0.0 | 0.00 | 0.05 | 0.00 | 83 | |
| 20260506101800 | 11 | 275 | 0.0 | 0.0 | 0.00 | 0.05 | 0.00 | 83 | |
| 20260506101258 | 11 | 275 | 0.0 | 0.0 | 0.00 | 0.05 | 0.00 | 83 | |
| 20260506100759 | 11 | 275 | 0.0 | 0.0 | 0.00 | 0.08 | 0.00 | 82 | |
| 20260506100259 | 11 | 275 | 0.0 | 1.6 | 0.00 | 0.08 | 0.00 | 82 | |
| 20260506095756 | 11 | 275 | 0.0 | 1.6 | 0.00 | 0.08 | 0.00 | 82 | |
| 20260506095257 | 11 | 275 | 0.0 | 3.2 | 0.00 | 0.10 | 0.00 | 82 | |
| 20260506094803 | 11 | 240 | 0.0 | 0.0 | 0.00 | 0.10 | 0.00 | 82 | |
| 20260506094756 | 11 | 275 | 0.0 | 3.2 | 0.00 | 0.10 | 0.00 | 82 | |
| 20260506093753 | 11 | 240 | 0.0 | 3.2 | 0.00 | 0.10 | 0.00 | 82 | |
| 20260506093301 | 11 | 258 | 0.0 | 0.0 | 0.00 | 0.10 | 0.00 | 81 | |
| 20260506093253 | 11 | 240 | 0.0 | 3.2 | 0.00 | 0.10 | 0.00 | 82 | |
| 20260506092913 | 11 | 258 | 0.0 | 0.0 | 0.00 | 0.10 | 0.00 | 81 | |
| 20260506091750 | 11 | 260 | 0.0 | 0.0 | 0.00 | 0.10 | 0.00 | 81 | |
| 20260506091251 | 11 | 260 | 0.0 | 1.6 | 0.00 | 0.10 | 0.00 | 80 | |
| 20260506090752 | 11 | 260 | 0.0 | 1.6 | 0.00 | 0.10 | 0.00 | 80 | |
| 20260506090250 | 11 | 267 | 0.0 | 0.0 | 0.00 | 0.10 | 0.00 | 80 | |
| 20260506085800 | 11 | 267 | 0.0 | 0.0 | 0.00 | 0.10 | 0.00 | 80 | |
| 20260506085752 | 11 | 267 | 0.0 | 0.0 | 0.00 | 0.10 | 0.00 | 80 | |
| 20260506085250 | 11 | 267 | 0.0 | 0.0 | 0.00 | 0.10 | 0.00 | 80 | |
| 20260506084909 | 11 | 267 | 0.0 | 0.0 | 0.00 | 0.10 | 0.00 | 80 | |
| 20260506083755 | 11 | 267 | 0.0 | 0.0 | 0.00 | 0.10 | 0.00 | 80 | |
| 20260506083747 | 11 | 267 | 0.0 | 0.0 | 0.00 | 0.10 | 0.00 | 80 | |
| 20260506082743 | 11 | 267 | 0.0 | 0.0 | 0.00 | 0.10 | 0.00 | 80 | |
| 20260506082245 | 12 | 267 | 0.0 | 0.0 | 0.00 | 0.10 | 0.00 | 80 | |
| 20260506081743 | 12 | 267 | 0.0 | 0.0 | 0.00 | 0.10 | 0.00 | 80 | |
| 20260506081245 | 12 | 267 | 0.0 | 0.0 | 0.00 | 0.10 | 0.00 | 80 | |
| 20260506080745 | 12 | 267 | 0.0 | 0.0 | 0.00 | 0.10 | 0.00 | 80 | |
| 20260506080245 | 12 | 267 | 0.0 | 1.6 | 0.00 | 0.10 | 0.00 | 80 | |
| 20260506073245 | 12 | 252 | 0.0 | 1.6 | 0.00 | 0.10 | 0.00 | 80 | |
| 20260506072751 | 12 | 249 | 0.0 | 3.2 | 0.00 | 0.10 | 0.00 | 80 | |
| 20260506072744 | 12 | 252 | 0.0 | 3.2 | 0.00 | 0.10 | 0.00 | 80 | |
| 20260506071744 | 12 | 249 | 0.0 | 3.2 | 0.00 | 0.10 | 0.00 | 80 | |
| 20260506071244 | 12 | 249 | 0.0 | 0.0 | 0.00 | 0.10 | 0.00 | 79 | |
| 20260506070744 | 12 | 249 | 1.6 | 11.3 | 0.00 | 0.10 | 0.00 | 79 | |
| 20260506070245 | 13 | 249 | 1.6 | 11.3 | 0.00 | 0.10 | 0.00 | 79 | |
| 20260506062240 | 13 | 248 | 3.2 | 11.3 | 0.00 | 0.10 | 0.10 | 78 | |
| 20260506061740 | 13 | 240 | 1.6 | 11.3 | 0.00 | 0.10 | 0.10 | 78 | |
| 20260506061247 | 13 | 188 | 0.0 | 0.0 | 0.00 | 0.10 | 0.10 | 78 | |
| 20260506061239 | 13 | 188 | 0.0 | 0.0 | 0.00 | 0.10 | 0.10 | 78 | |
| 20260506060902 | 13 | 188 | 1.6 | 6.4 | 0.00 | 0.10 | 0.10 | 78 | |
| 20260506060240 | 13 | 188 | 0.0 | 1.6 | 0.00 | 0.10 | 0.10 | 78 | |
| 20260506051237 | 13 | 318 | 3.2 | 17.7 | 0.00 | 0.10 | 0.10 | 77 | |
| 20260506050735 | 13 | 243 | 4.8 | 17.7 | 0.00 | 0.10 | 0.10 | 78 | |
| 20260506050244 | 14 | 165 | 1.6 | 9.7 | 0.00 | 0.10 | 0.10 | 77 | |
| 20260506050237 | 13 | 242 | 3.2 | 12.9 | 0.00 | 0.10 | 0.10 | 77 | |
| 20260506044736 | 14 | 218 | 3.2 | 11.3 | 0.00 | 0.10 | 0.10 | 77 | |
| 20260506044235 | 14 | 188 | 4.8 | 12.9 | 0.00 | 0.10 | 0.10 | 77 | |
| 20260506043736 | 14 | 171 | 4.8 | 12.9 | 0.00 | 0.10 | 0.10 | 77 | |
| 20260506043236 | 14 | 175 | 3.2 | 11.3 | 0.00 | 0.10 | 0.10 | 77 | |
| 20260506042743 | 14 | 223 | 3.2 | 12.9 | 0.00 | 0.10 | 0.10 | 76 | |
| 20260506042735 | 14 | 273 | 3.2 | 12.9 | 0.00 | 0.10 | 0.10 | 76 | |
| 20260506041733 | 14 | 282 | 3.2 | 9.7 | 0.00 | 0.10 | 0.10 | 76 | |
| 20260506041234 | 14 | 210 | 3.2 | 9.7 | 0.00 | 0.10 | 0.10 | 76 | |
| 20260506040740 | 14 | 261 | 4.8 | 16.1 | 0.00 | 0.10 | 0.10 | 75 | |
| 20260506040733 | 14 | 270 | 3.2 | 14.5 | 0.00 | 0.10 | 0.10 | 76 | |
| 20260506040233 | 14 | 208 | 4.8 | 14.5 | 0.00 | 0.10 | 0.10 | 76 | |
| 20260506035233 | 14 | 272 | 4.8 | 16.1 | 0.00 | 0.10 | 0.10 | 75 | |
| 20260506034733 | 14 | 235 | 3.2 | 16.1 | 0.00 | 0.10 | 0.10 | 75 | |
| 20260506034233 | 14 | 173 | 3.2 | 16.1 | 0.00 | 0.10 | 0.10 | 75 | |
| 20260506033734 | 14 | 228 | 4.8 | 14.5 | 0.00 | 0.10 | 0.10 | 75 | |
| 20260506033231 | 15 | 246 | 3.2 | 12.9 | 0.00 | 0.10 | 0.10 | 75 | |
| 20260506032731 | 15 | 188 | 3.2 | 14.5 | 0.00 | 0.10 | 0.10 | 74 | |
| 20260506032231 | 15 | 271 | 1.6 | 14.5 | 0.00 | 0.10 | 0.10 | 74 | |
| 20260506031731 | 15 | 181 | 1.6 | 12.9 | 0.00 | 0.10 | 0.10 | 74 | |
| 20260506031229 | 15 | 241 | 4.8 | 17.7 | 0.00 | 0.10 | 0.10 | 74 | |
| 20260506030729 | 15 | 134 | 4.8 | 19.3 | 0.00 | 0.10 | 0.10 | 74 | |
| 20260506030229 | 15 | 183 | 4.8 | 19.3 | 0.00 | 0.10 | 0.10 | 74 | |
| 20260506025736 | 15 | 196 | 6.4 | 17.7 | 0.00 | 0.10 | 0.10 | 73 | |
| 20260506025729 | 15 | 252 | 4.8 | 14.5 | 0.00 | 0.10 | 0.10 | 74 | |
| 20260506024730 | 15 | 243 | 6.4 | 17.7 | 0.00 | 0.10 | 0.10 | 73 | |
| 20260506024230 | 15 | 171 | 6.4 | 22.5 | 0.00 | 0.10 | 0.10 | 73 | |
| 20260506023729 | 15 | 265 | 6.4 | 22.5 | 0.00 | 0.10 | 0.10 | 73 | |
| 20260506023229 | 15 | 259 | 6.4 | 19.3 | 0.00 | 0.10 | 0.10 | 73 | |
| 20260506022730 | 15 | 223 | 8.0 | 19.3 | 0.00 | 0.10 | 0.10 | 72 | |
| 20260506022228 | 15 | 229 | 8.0 | 17.7 | 0.00 | 0.10 | 0.10 | 72 | |
| 20260506021729 | 15 | 208 | 4.8 | 17.7 | 0.00 | 0.10 | 0.10 | 72 | |
| 20260506021230 | 15 | 289 | 4.8 | 14.5 | 0.00 | 0.10 | 0.10 | 71 | |
| 20260506020729 | 15 | 200 | 6.4 | 16.1 | 0.00 | 0.10 | 0.10 | 71 | |
| 20260506020236 | 15 | 183 | 6.4 | 17.7 | 0.00 | 0.10 | 0.10 | 71 | |
| 20260506020227 | 15 | 177 | 8.0 | 16.1 | 0.00 | 0.10 | 0.10 | 71 | |
| 20260506015228 | 15 | 238 | 6.4 | 17.7 | 0.00 | 0.10 | 0.10 | 71 | |
| 20260506014728 | 16 | 194 | 8.0 | 25.7 | 0.00 | 0.10 | 0.10 | 71 | |
| 20260506014238 | 16 | 169 | 12.9 | 27.4 | 0.00 | 0.10 | 0.10 | 71 | |
| 20260506014228 | 16 | 194 | 11.3 | 29.0 | 0.00 | 0.10 | 0.10 | 71 | |
| 20260506013727 | 16 | 175 | 12.9 | 29.0 | 0.00 | 0.10 | 0.10 | 70 | |
| 20260506012728 | 16 | 181 | 11.3 | 27.4 | 0.00 | 0.10 | 0.10 | 71 | |
| 20260506012228 | 16 | 169 | 11.3 | 27.4 | 0.00 | 0.10 | 0.10 | 71 | |
| 20260506011729 | 16 | 177 | 9.7 | 27.4 | 0.00 | 0.10 | 0.10 | 70 | |
| 20260506011227 | 16 | 177 | 9.7 | 25.7 | 0.00 | 0.10 | 0.10 | 70 | |
| 20260506010727 | 16 | 198 | 11.3 | 19.3 | 0.00 | 0.10 | 0.10 | 70 | |
| 20260506010228 | 16 | 189 | 9.7 | 19.3 | 0.00 | 0.10 | 0.10 | 71 | |
| 20260506005727 | 16 | 181 | 9.7 | 19.3 | 0.00 | 0.10 | 0.10 | 71 | |
| 20260506005227 | 16 | 181 | 9.7 | 20.9 | 0.00 | 0.10 | 0.10 | 71 | |
| 20260506004727 | 16 | 222 | 9.7 | 20.9 | 0.00 | 0.10 | 0.10 | 71 | |
| 20260506004228 | 16 | 180 | 9.7 | 19.3 | 0.00 | 0.10 | 0.10 | 70 | |
| 20260506003725 | 16 | 173 | 9.7 | 19.3 | 0.00 | 0.10 | 0.10 | 70 | |
| 20260506003226 | 16 | 170 | 9.7 | 19.3 | 0.00 | 0.10 | 0.10 | 70 | |
| 20260506002725 | 16 | 200 | 11.3 | 27.4 | 0.00 | 0.10 | 0.10 | 70 | |
| 20260506002233 | 16 | 256 | 11.3 | 25.7 | 0.00 | 0.10 | 0.10 | 70 | |
| 20260506002225 | 16 | 189 | 9.7 | 27.4 | 0.00 | 0.10 | 0.10 | 71 | |
| 20260506001225 | 16 | 171 | 11.3 | 22.5 | 0.00 | 0.10 | 0.10 | 70 | |
| 20260506000725 | 16 | 194 | 8.0 | 20.9 | 0.00 | 0.10 | 0.10 | 70 | |
| 20260506000226 | 16 | 169 | 4.8 | 16.1 | 0.00 | 0.10 | 0.10 | 70 | |
| 20260505235725 | 16 | 208 | 8.0 | 22.5 | 0.00 | 0.10 | 0.10 | 70 | |
| 20260505235225 | 16 | 211 | 9.7 | 22.5 | 0.00 | 0.10 | 0.10 | 70 | |
| 20260505234724 | 16 | 180 | 8.0 | 20.9 | 0.00 | 0.10 | 0.10 | 69 | |
| 20260505234224 | 16 | 264 | 9.7 | 24.1 | 0.00 | 0.10 | 0.10 | 69 | |
| 20260505233730 | 16 | 196 | 12.9 | 24.1 | 0.00 | 0.10 | 0.10 | 71 | |
| 20260505233721 | 16 | 203 | 8.0 | 24.1 | 0.00 | 0.10 | 0.10 | 69 | |
| 20260505233222 | 16 | 204 | 6.4 | 14.5 | 0.00 | 0.10 | 0.10 | 70 | |
| 20260505232719 | 16 | 192 | 9.7 | 20.9 | 0.00 | 0.10 | 0.10 | 70 | |
| 20260505231719 | 16 | 188 | 11.3 | 24.1 | 0.00 | 0.10 | 0.10 | 70 | |
| 20260505231219 | 16 | 194 | 9.7 | 27.4 | 0.00 | 0.10 | 0.10 | 70 | |
| 20260505230718 | 16 | 179 | 11.3 | 27.4 | 0.00 | 0.10 | 0.10 | 70 | |
| 20260505230219 | 16 | 182 | 9.7 | 19.3 | 0.00 | 0.10 | 0.10 | 69 | |
| 20260505225720 | 16 | 190 | 9.7 | 19.3 | 0.00 | 0.10 | 0.10 | 70 | |
| 20260505225219 | 16 | 216 | 11.3 | 24.1 | 0.00 | 0.10 | 0.10 | 70 | |
| 20260505224719 | 16 | 195 | 9.7 | 24.1 | 0.00 | 0.10 | 0.10 | 69 | |
| 20260505224218 | 16 | 192 | 9.7 | 20.9 | 0.00 | 0.10 | 0.10 | 70 | |
| 20260505223719 | 16 | 215 | 11.3 | 20.9 | 0.00 | 0.10 | 0.10 | 69 | |
| 20260505223218 | 16 | 176 | 11.3 | 22.5 | 0.00 | 0.10 | 0.10 | 70 | |
| 20260505222719 | 16 | 229 | 14.5 | 24.1 | 0.00 | 0.10 | 0.10 | 70 | |
| 20260505222219 | 16 | 158 | 14.5 | 24.1 | 0.00 | 0.10 | 0.10 | 70 | |
| 20260505221720 | 16 | 176 | 12.9 | 24.1 | 0.00 | 0.10 | 0.10 | 71 | |
| 20260505221219 | 16 | 221 | 9.7 | 24.1 | 0.00 | 0.10 | 0.10 | 71 | |
| 20260505220720 | 16 | 227 | 8.0 | 22.5 | 0.00 | 0.10 | 0.10 | 72 | |
| 20260505220228 | 16 | 188 | 9.7 | 20.9 | 0.00 | 0.10 | 0.10 | 72 | |
| 20260505220219 | 16 | 225 | 9.7 | 22.5 | 0.00 | 0.10 | 0.10 | 73 | |
| 20260505215219 | 16 | 274 | 9.7 | 22.5 | 0.00 | 0.10 | 0.10 | 73 | |
| 20260505214727 | 16 | 290 | 9.7 | 19.3 | 0.00 | 0.10 | 0.10 | 74 | |
| 20260505214719 | 16 | 244 | 9.7 | 22.5 | 0.00 | 0.10 | 0.10 | 73 | |
| 20260505213718 | 16 | 208 | 9.7 | 20.9 | 0.00 | 0.10 | 0.10 | 74 | |
| 20260505213218 | 16 | 251 | 12.9 | 25.7 | 0.00 | 0.10 | 0.10 | 74 | |
| 20260505212720 | 16 | 165 | 11.3 | 25.7 | 0.00 | 0.10 | 0.10 | 74 | |
| 20260505212219 | 15 | 182 | 8.0 | 20.9 | 0.00 | 0.10 | 0.10 | 74 |